sensor_id;sensor_type;location;lat;lon;timestamp;P1;durP1;ratioP1;P2;durP2;ratioP2
11016;SDS011;54687;50.800;6.772;2023-08-30T00:02:24;6.43;;;5.75;;
11016;SDS011;54687;50.800;6.772;2023-08-30T00:04:51;6.20;;;5.60;;
11016;SDS011;54687;50.800;6.772;2023-08-30T00:07:18;6.60;;;5.95;;
11016;SDS011;54687;50.800;6.772;2023-08-30T00:09:46;6.15;;;5.60;;
11016;SDS011;54687;50.800;6.772;2023-08-30T00:12:12;5.95;;;5.13;;
11016;SDS011;54687;50.800;6.772;2023-08-30T00:14:39;6.00;;;5.50;;
11016;SDS011;54687;50.800;6.772;2023-08-30T00:17:05;6.60;;;5.35;;
11016;SDS011;54687;50.800;6.772;2023-08-30T00:19:34;5.70;;;5.15;;
11016;SDS011;54687;50.800;6.772;2023-08-30T00:22:03;7.03;;;6.32;;
11016;SDS011;54687;50.800;6.772;2023-08-30T00:24:33;6.20;;;5.70;;
11016;SDS011;54687;50.800;6.772;2023-08-30T00:27:03;6.85;;;6.25;;
11016;SDS011;54687;50.800;6.772;2023-08-30T00:29:31;6.55;;;5.95;;
11016;SDS011;54687;50.800;6.772;2023-08-30T00:31:58;6.00;;;5.50;;
11016;SDS011;54687;50.800;6.772;2023-08-30T00:34:26;6.00;;;5.40;;
11016;SDS011;54687;50.800;6.772;2023-08-30T00:36:53;6.15;;;5.55;;
11016;SDS011;54687;50.800;6.772;2023-08-30T00:39:20;5.65;;;5.15;;
11016;SDS011;54687;50.800;6.772;2023-08-30T00:41:47;5.88;;;5.32;;
11016;SDS011;54687;50.800;6.772;2023-08-30T00:44:16;5.43;;;4.93;;
11016;SDS011;54687;50.800;6.772;2023-08-30T00:46:43;6.65;;;5.05;;
11016;SDS011;54687;50.800;6.772;2023-08-30T00:49:10;5.70;;;5.20;;
11016;SDS011;54687;50.800;6.772;2023-08-30T00:51:36;5.50;;;4.75;;
11016;SDS011;54687;50.800;6.772;2023-08-30T00:54:03;5.22;;;4.82;;
11016;SDS011;54687;50.800;6.772;2023-08-30T00:56:30;5.03;;;4.57;;
11016;SDS011;54687;50.800;6.772;2023-08-30T00:58:57;5.40;;;5.00;;
11016;SDS011;54687;50.800;6.772;2023-08-30T01:01:26;6.43;;;5.03;;
11016;SDS011;54687;50.800;6.772;2023-08-30T01:03:53;5.65;;;5.07;;
11016;SDS011;54687;50.800;6.772;2023-08-30T01:06:19;5.18;;;4.72;;
11016;SDS011;54687;50.800;6.772;2023-08-30T01:08:46;4.85;;;4.45;;
11016;SDS011;54687;50.800;6.772;2023-08-30T01:11:13;5.25;;;4.65;;
11016;SDS011;54687;50.800;6.772;2023-08-30T01:13:50;5.50;;;5.00;;
11016;SDS011;54687;50.800;6.772;2023-08-30T01:16:20;5.25;;;4.72;;
11016;SDS011;54687;50.800;6.772;2023-08-30T01:18:50;5.20;;;4.70;;
11016;SDS011;54687;50.800;6.772;2023-08-30T01:21:23;5.50;;;5.00;;
11016;SDS011;54687;50.800;6.772;2023-08-30T01:23:58;5.18;;;4.65;;
11016;SDS011;54687;50.800;6.772;2023-08-30T01:26:27;4.43;;;4.03;;
11016;SDS011;54687;50.800;6.772;2023-08-30T01:29:01;6.10;;;4.55;;
11016;SDS011;54687;50.800;6.772;2023-08-30T01:31:29;5.22;;;4.82;;
11016;SDS011;54687;50.800;6.772;2023-08-30T01:33:59;4.85;;;4.35;;
11016;SDS011;54687;50.800;6.772;2023-08-30T01:36:29;4.85;;;4.45;;
11016;SDS011;54687;50.800;6.772;2023-08-30T01:38:56;4.57;;;4.15;;
11016;SDS011;54687;50.800;6.772;2023-08-30T01:41:24;5.03;;;4.25;;
11016;SDS011;54687;50.800;6.772;2023-08-30T01:43:52;4.40;;;4.00;;
11016;SDS011;54687;50.800;6.772;2023-08-30T01:46:20;4.18;;;3.88;;
11016;SDS011;54687;50.800;6.772;2023-08-30T01:48:48;5.72;;;4.45;;
11016;SDS011;54687;50.800;6.772;2023-08-30T01:51:15;7.18;;;4.55;;
11016;SDS011;54687;50.800;6.772;2023-08-30T01:53:43;5.25;;;4.07;;
11016;SDS011;54687;50.800;6.772;2023-08-30T01:56:10;5.10;;;4.60;;
11016;SDS011;54687;50.800;6.772;2023-08-30T01:58:37;4.80;;;4.30;;
11016;SDS011;54687;50.800;6.772;2023-08-30T02:01:03;6.65;;;4.38;;
11016;SDS011;54687;50.800;6.772;2023-08-30T02:03:32;5.35;;;4.82;;
11016;SDS011;54687;50.800;6.772;2023-08-30T02:06:00;6.15;;;4.93;;
11016;SDS011;54687;50.800;6.772;2023-08-30T02:08:33;4.38;;;4.07;;
11016;SDS011;54687;50.800;6.772;2023-08-30T02:11:04;5.97;;;4.50;;
11016;SDS011;54687;50.800;6.772;2023-08-30T02:13:37;4.68;;;4.22;;
11016;SDS011;54687;50.800;6.772;2023-08-30T02:16:05;5.05;;;4.65;;
11016;SDS011;54687;50.800;6.772;2023-08-30T02:18:36;5.15;;;4.65;;
11016;SDS011;54687;50.800;6.772;2023-08-30T02:21:03;4.93;;;4.53;;
11016;SDS011;54687;50.800;6.772;2023-08-30T02:23:30;5.47;;;4.63;;
11016;SDS011;54687;50.800;6.772;2023-08-30T02:25:56;5.07;;;4.50;;
11016;SDS011;54687;50.800;6.772;2023-08-30T02:28:23;4.55;;;4.18;;
11016;SDS011;54687;50.800;6.772;2023-08-30T02:30:50;5.00;;;4.50;;
11016;SDS011;54687;50.800;6.772;2023-08-30T02:33:18;5.00;;;4.57;;
11016;SDS011;54687;50.800;6.772;2023-08-30T02:35:46;5.63;;;5.07;;
11016;SDS011;54687;50.800;6.772;2023-08-30T02:38:13;5.57;;;5.07;;
11016;SDS011;54687;50.800;6.772;2023-08-30T02:40:39;5.75;;;5.03;;
11016;SDS011;54687;50.800;6.772;2023-08-30T02:43:06;5.03;;;4.63;;
11016;SDS011;54687;50.800;6.772;2023-08-30T02:45:32;5.20;;;4.80;;
11016;SDS011;54687;50.800;6.772;2023-08-30T02:47:59;5.07;;;4.68;;
11016;SDS011;54687;50.800;6.772;2023-08-30T02:50:26;5.65;;;5.18;;
11016;SDS011;54687;50.800;6.772;2023-08-30T02:52:54;5.82;;;5.22;;
11016;SDS011;54687;50.800;6.772;2023-08-30T02:55:21;5.20;;;4.70;;
11016;SDS011;54687;50.800;6.772;2023-08-30T02:57:47;5.82;;;5.05;;
11016;SDS011;54687;50.800;6.772;2023-08-30T03:00:14;5.18;;;4.70;;
11016;SDS011;54687;50.800;6.772;2023-08-30T03:02:42;5.90;;;5.35;;
11016;SDS011;54687;50.800;6.772;2023-08-30T03:05:08;5.65;;;5.25;;
11016;SDS011;54687;50.800;6.772;2023-08-30T03:07:37;5.32;;;4.93;;
11016;SDS011;54687;50.800;6.772;2023-08-30T03:10:05;8.18;;;7.45;;
11016;SDS011;54687;50.800;6.772;2023-08-30T03:12:32;11.60;;;10.50;;
11016;SDS011;54687;50.800;6.772;2023-08-30T03:14:59;7.25;;;6.57;;
11016;SDS011;54687;50.800;6.772;2023-08-30T03:17:25;6.07;;;5.53;;
11016;SDS011;54687;50.800;6.772;2023-08-30T03:19:52;6.00;;;5.40;;
11016;SDS011;54687;50.800;6.772;2023-08-30T03:22:19;6.20;;;5.60;;
11016;SDS011;54687;50.800;6.772;2023-08-30T03:24:46;6.30;;;5.65;;
11016;SDS011;54687;50.800;6.772;2023-08-30T03:27:13;5.97;;;5.47;;
11016;SDS011;54687;50.800;6.772;2023-08-30T03:29:40;6.88;;;5.60;;
11016;SDS011;54687;50.800;6.772;2023-08-30T03:32:07;6.85;;;5.60;;
11016;SDS011;54687;50.800;6.772;2023-08-30T03:34:33;7.22;;;5.70;;
11016;SDS011;54687;50.800;6.772;2023-08-30T03:37:00;6.13;;;5.63;;
11016;SDS011;54687;50.800;6.772;2023-08-30T03:39:26;6.53;;;5.50;;
11016;SDS011;54687;50.800;6.772;2023-08-30T03:41:53;5.70;;;5.20;;
11016;SDS011;54687;50.800;6.772;2023-08-30T03:44:24;5.90;;;5.40;;
11016;SDS011;54687;50.800;6.772;2023-08-30T03:46:51;5.68;;;5.18;;
11016;SDS011;54687;50.800;6.772;2023-08-30T03:49:19;6.13;;;5.53;;
11016;SDS011;54687;50.800;6.772;2023-08-30T03:51:45;6.57;;;5.97;;
11016;SDS011;54687;50.800;6.772;2023-08-30T03:54:12;5.70;;;5.20;;
11016;SDS011;54687;50.800;6.772;2023-08-30T03:56:41;5.90;;;5.40;;
11016;SDS011;54687;50.800;6.772;2023-08-30T03:59:08;6.85;;;6.05;;
11016;SDS011;54687;50.800;6.772;2023-08-30T04:01:36;6.05;;;5.53;;
11016;SDS011;54687;50.800;6.772;2023-08-30T04:04:03;7.18;;;6.47;;
11016;SDS011;54687;50.800;6.772;2023-08-30T04:06:31;7.00;;;5.55;;
11016;SDS011;54687;50.800;6.772;2023-08-30T04:08:57;6.00;;;5.40;;
11016;SDS011;54687;50.800;6.772;2023-08-30T04:11:24;6.70;;;5.60;;
11016;SDS011;54687;50.800;6.772;2023-08-30T04:13:50;5.97;;;5.47;;
11016;SDS011;54687;50.800;6.772;2023-08-30T04:16:18;7.40;;;5.90;;
11016;SDS011;54687;50.800;6.772;2023-08-30T04:18:46;6.18;;;5.57;;
11016;SDS011;54687;50.800;6.772;2023-08-30T04:21:12;6.10;;;5.60;;
11016;SDS011;54687;50.800;6.772;2023-08-30T04:23:39;6.50;;;5.90;;
11016;SDS011;54687;50.800;6.772;2023-08-30T04:26:05;6.07;;;5.57;;
11016;SDS011;54687;50.800;6.772;2023-08-30T04:28:32;7.18;;;6.15;;
11016;SDS011;54687;50.800;6.772;2023-08-30T04:30:59;7.82;;;5.85;;
11016;SDS011;54687;50.800;6.772;2023-08-30T04:33:26;6.68;;;6.00;;
11016;SDS011;54687;50.800;6.772;2023-08-30T04:35:54;7.20;;;6.60;;
11016;SDS011;54687;50.800;6.772;2023-08-30T04:38:21;8.18;;;7.35;;
11016;SDS011;54687;50.800;6.772;2023-08-30T04:40:47;7.82;;;7.18;;
11016;SDS011;54687;50.800;6.772;2023-08-30T04:43:14;9.98;;;8.73;;
11016;SDS011;54687;50.800;6.772;2023-08-30T04:45:41;12.27;;;9.77;;
11016;SDS011;54687;50.800;6.772;2023-08-30T04:48:07;18.95;;;15.20;;
11016;SDS011;54687;50.800;6.772;2023-08-30T04:50:36;14.18;;;12.02;;
11016;SDS011;54687;50.800;6.772;2023-08-30T04:53:04;13.25;;;11.70;;
11016;SDS011;54687;50.800;6.772;2023-08-30T04:55:31;15.35;;;12.45;;
11016;SDS011;54687;50.800;6.772;2023-08-30T04:57:57;15.75;;;11.57;;
11016;SDS011;54687;50.800;6.772;2023-08-30T05:00:24;11.52;;;10.05;;
11016;SDS011;54687;50.800;6.772;2023-08-30T05:02:50;11.77;;;10.52;;
11016;SDS011;54687;50.800;6.772;2023-08-30T05:05:17;11.77;;;9.30;;
11016;SDS011;54687;50.800;6.772;2023-08-30T05:07:44;10.25;;;8.18;;
11016;SDS011;54687;50.800;6.772;2023-08-30T05:10:12;8.43;;;7.72;;
11016;SDS011;54687;50.800;6.772;2023-08-30T05:12:38;7.95;;;7.07;;
11016;SDS011;54687;50.800;6.772;2023-08-30T05:15:06;8.02;;;7.03;;
11016;SDS011;54687;50.800;6.772;2023-08-30T05:17:33;6.63;;;6.03;;
11016;SDS011;54687;50.800;6.772;2023-08-30T05:19:59;9.15;;;5.57;;
11016;SDS011;54687;50.800;6.772;2023-08-30T05:22:26;7.55;;;6.07;;
11016;SDS011;54687;50.800;6.772;2023-08-30T05:24:52;6.45;;;5.85;;
11016;SDS011;54687;50.800;6.772;2023-08-30T05:27:20;10.85;;;6.28;;
11016;SDS011;54687;50.800;6.772;2023-08-30T05:29:47;9.43;;;5.50;;
11016;SDS011;54687;50.800;6.772;2023-08-30T05:32:14;7.40;;;6.25;;
11016;SDS011;54687;50.800;6.772;2023-08-30T05:34:40;6.88;;;6.13;;
11016;SDS011;54687;50.800;6.772;2023-08-30T05:37:07;6.15;;;5.53;;
11016;SDS011;54687;50.800;6.772;2023-08-30T05:39:34;8.07;;;5.72;;
11016;SDS011;54687;50.800;6.772;2023-08-30T05:42:00;6.78;;;6.03;;
11016;SDS011;54687;50.800;6.772;2023-08-30T05:44:29;6.32;;;5.60;;
11016;SDS011;54687;50.800;6.772;2023-08-30T05:46:56;6.50;;;5.88;;
11016;SDS011;54687;50.800;6.772;2023-08-30T05:49:22;6.50;;;5.95;;
11016;SDS011;54687;50.800;6.772;2023-08-30T05:51:49;10.73;;;6.28;;
11016;SDS011;54687;50.800;6.772;2023-08-30T05:54:16;11.82;;;6.78;;
11016;SDS011;54687;50.800;6.772;2023-08-30T05:56:42;6.05;;;5.45;;
11016;SDS011;54687;50.800;6.772;2023-08-30T05:59:09;5.75;;;5.25;;
11016;SDS011;54687;50.800;6.772;2023-08-30T06:01:37;6.03;;;5.53;;
11016;SDS011;54687;50.800;6.772;2023-08-30T06:04:04;6.13;;;5.57;;
11016;SDS011;54687;50.800;6.772;2023-08-30T06:06:31;6.45;;;5.60;;
11016;SDS011;54687;50.800;6.772;2023-08-30T06:08:57;5.72;;;5.03;;
11016;SDS011;54687;50.800;6.772;2023-08-30T06:11:24;6.32;;;5.10;;
11016;SDS011;54687;50.800;6.772;2023-08-30T06:13:51;6.40;;;5.07;;
11016;SDS011;54687;50.800;6.772;2023-08-30T06:16:18;7.00;;;6.30;;
11016;SDS011;54687;50.800;6.772;2023-08-30T06:18:45;9.20;;;6.22;;
11016;SDS011;54687;50.800;6.772;2023-08-30T06:21:12;6.20;;;4.90;;
11016;SDS011;54687;50.800;6.772;2023-08-30T06:23:39;5.95;;;5.43;;
11016;SDS011;54687;50.800;6.772;2023-08-30T06:26:05;6.38;;;5.00;;
11016;SDS011;54687;50.800;6.772;2023-08-30T06:28:34;6.20;;;4.85;;
11016;SDS011;54687;50.800;6.772;2023-08-30T06:31:00;8.90;;;6.38;;
11016;SDS011;54687;50.800;6.772;2023-08-30T06:33:28;8.48;;;5.63;;
11016;SDS011;54687;50.800;6.772;2023-08-30T06:35:56;15.15;;;6.28;;
11016;SDS011;54687;50.800;6.772;2023-08-30T06:38:24;5.70;;;5.10;;
11016;SDS011;54687;50.800;6.772;2023-08-30T06:40:50;5.97;;;5.40;;
11016;SDS011;54687;50.800;6.772;2023-08-30T06:43:17;5.05;;;4.30;;
11016;SDS011;54687;50.800;6.772;2023-08-30T06:45:44;6.32;;;4.80;;
11016;SDS011;54687;50.800;6.772;2023-08-30T06:48:11;4.97;;;4.50;;
11016;SDS011;54687;50.800;6.772;2023-08-30T06:50:38;5.60;;;5.05;;
11016;SDS011;54687;50.800;6.772;2023-08-30T06:53:06;7.05;;;4.85;;
11016;SDS011;54687;50.800;6.772;2023-08-30T06:55:34;6.72;;;5.35;;
11016;SDS011;54687;50.800;6.772;2023-08-30T06:58:02;20.45;;;7.07;;
11016;SDS011;54687;50.800;6.772;2023-08-30T07:00:29;7.13;;;5.15;;
11016;SDS011;54687;50.800;6.772;2023-08-30T07:02:55;6.85;;;5.97;;
11016;SDS011;54687;50.800;6.772;2023-08-30T07:05:22;6.57;;;5.35;;
11016;SDS011;54687;50.800;6.772;2023-08-30T07:07:49;10.82;;;5.55;;
11016;SDS011;54687;50.800;6.772;2023-08-30T07:10:17;7.57;;;5.22;;
11016;SDS011;54687;50.800;6.772;2023-08-30T07:12:43;6.18;;;5.65;;
11016;SDS011;54687;50.800;6.772;2023-08-30T07:15:13;6.57;;;5.57;;
11016;SDS011;54687;50.800;6.772;2023-08-30T07:17:41;5.90;;;5.22;;
11016;SDS011;54687;50.800;6.772;2023-08-30T07:20:08;5.88;;;4.93;;
11016;SDS011;54687;50.800;6.772;2023-08-30T07:22:36;6.57;;;5.80;;
11016;SDS011;54687;50.800;6.772;2023-08-30T07:25:02;6.82;;;5.18;;
11016;SDS011;54687;50.800;6.772;2023-08-30T07:27:32;5.32;;;4.90;;
11016;SDS011;54687;50.800;6.772;2023-08-30T07:29:59;6.72;;;5.05;;
11016;SDS011;54687;50.800;6.772;2023-08-30T07:32:26;6.00;;;5.40;;
11016;SDS011;54687;50.800;6.772;2023-08-30T07:34:53;8.75;;;5.20;;
11016;SDS011;54687;50.800;6.772;2023-08-30T07:37:20;5.10;;;4.70;;
11016;SDS011;54687;50.800;6.772;2023-08-30T07:39:47;5.38;;;4.70;;
11016;SDS011;54687;50.800;6.772;2023-08-30T07:42:13;5.93;;;4.18;;
11016;SDS011;54687;50.800;6.772;2023-08-30T07:44:41;7.95;;;3.92;;
11016;SDS011;54687;50.800;6.772;2023-08-30T07:47:08;6.75;;;4.22;;
11016;SDS011;54687;50.800;6.772;2023-08-30T07:49:35;8.95;;;4.72;;
11016;SDS011;54687;50.800;6.772;2023-08-30T07:52:01;10.75;;;4.40;;
11016;SDS011;54687;50.800;6.772;2023-08-30T07:54:29;4.00;;;3.60;;
11016;SDS011;54687;50.800;6.772;2023-08-30T07:56:56;5.40;;;3.78;;
11016;SDS011;54687;50.800;6.772;2023-08-30T07:59:23;4.97;;;3.92;;
11016;SDS011;54687;50.800;6.772;2023-08-30T08:01:51;4.45;;;4.05;;
11016;SDS011;54687;50.800;6.772;2023-08-30T08:04:18;7.03;;;3.50;;
11016;SDS011;54687;50.800;6.772;2023-08-30T08:06:45;4.03;;;3.63;;
11016;SDS011;54687;50.800;6.772;2023-08-30T08:09:13;6.25;;;4.00;;
11016;SDS011;54687;50.800;6.772;2023-08-30T08:11:40;5.20;;;3.60;;
11016;SDS011;54687;50.800;6.772;2023-08-30T08:14:09;6.07;;;3.60;;
11016;SDS011;54687;50.800;6.772;2023-08-30T08:16:36;4.47;;;3.45;;
11016;SDS011;54687;50.800;6.772;2023-08-30T08:19:08;5.10;;;3.55;;
11016;SDS011;54687;50.800;6.772;2023-08-30T08:21:35;4.75;;;3.78;;
11016;SDS011;54687;50.800;6.772;2023-08-30T08:24:02;3.55;;;3.05;;
11016;SDS011;54687;50.800;6.772;2023-08-30T08:26:29;4.85;;;3.63;;
11016;SDS011;54687;50.800;6.772;2023-08-30T08:28:55;5.30;;;3.13;;
11016;SDS011;54687;50.800;6.772;2023-08-30T08:31:22;5.07;;;3.40;;
11016;SDS011;54687;50.800;6.772;2023-08-30T08:33:50;4.43;;;3.58;;
11016;SDS011;54687;50.800;6.772;2023-08-30T08:36:18;5.15;;;3.22;;
11016;SDS011;54687;50.800;6.772;2023-08-30T08:38:45;5.38;;;3.05;;
11016;SDS011;54687;50.800;6.772;2023-08-30T08:41:12;4.53;;;3.17;;
11016;SDS011;54687;50.800;6.772;2023-08-30T08:43:41;5.22;;;3.30;;
11016;SDS011;54687;50.800;6.772;2023-08-30T08:46:09;6.80;;;3.38;;
11016;SDS011;54687;50.800;6.772;2023-08-30T08:48:38;6.65;;;3.47;;
11016;SDS011;54687;50.800;6.772;2023-08-30T08:51:08;5.43;;;3.65;;
11016;SDS011;54687;50.800;6.772;2023-08-30T08:53:37;4.00;;;3.20;;
11016;SDS011;54687;50.800;6.772;2023-08-30T08:56:04;4.18;;;3.05;;
11016;SDS011;54687;50.800;6.772;2023-08-30T08:58:33;5.40;;;3.25;;
11016;SDS011;54687;50.800;6.772;2023-08-30T09:01:03;3.92;;;3.08;;
11016;SDS011;54687;50.800;6.772;2023-08-30T09:03:32;3.75;;;3.20;;
11016;SDS011;54687;50.800;6.772;2023-08-30T09:05:59;3.78;;;2.85;;
11016;SDS011;54687;50.800;6.772;2023-08-30T09:08:27;4.07;;;3.10;;
11016;SDS011;54687;50.800;6.772;2023-08-30T09:10:55;5.65;;;3.22;;
11016;SDS011;54687;50.800;6.772;2023-08-30T09:13:21;5.05;;;3.63;;
11016;SDS011;54687;50.800;6.772;2023-08-30T09:15:48;6.32;;;3.30;;
11016;SDS011;54687;50.800;6.772;2023-08-30T09:18:16;5.00;;;2.58;;
11016;SDS011;54687;50.800;6.772;2023-08-30T09:20:42;5.43;;;3.17;;
11016;SDS011;54687;50.800;6.772;2023-08-30T09:23:16;5.03;;;2.97;;
11016;SDS011;54687;50.800;6.772;2023-08-30T09:25:43;4.18;;;2.83;;
11016;SDS011;54687;50.800;6.772;2023-08-30T09:28:12;3.50;;;3.17;;
11016;SDS011;54687;50.800;6.772;2023-08-30T09:30:38;5.10;;;3.50;;
11016;SDS011;54687;50.800;6.772;2023-08-30T09:33:05;6.20;;;3.58;;
11016;SDS011;54687;50.800;6.772;2023-08-30T09:35:32;4.28;;;3.20;;
11016;SDS011;54687;50.800;6.772;2023-08-30T09:38:06;5.65;;;3.17;;
11016;SDS011;54687;50.800;6.772;2023-08-30T09:40:33;3.60;;;2.88;;
11016;SDS011;54687;50.800;6.772;2023-08-30T09:42:59;7.90;;;3.72;;
11016;SDS011;54687;50.800;6.772;2023-08-30T09:45:29;3.83;;;3.35;;
11016;SDS011;54687;50.800;6.772;2023-08-30T09:47:56;4.80;;;4.03;;
11016;SDS011;54687;50.800;6.772;2023-08-30T09:50:23;5.47;;;3.35;;
11016;SDS011;54687;50.800;6.772;2023-08-30T09:52:50;5.75;;;3.50;;
11016;SDS011;54687;50.800;6.772;2023-08-30T09:55:18;6.03;;;3.78;;
11016;SDS011;54687;50.800;6.772;2023-08-30T09:57:45;5.82;;;3.08;;
11016;SDS011;54687;50.800;6.772;2023-08-30T10:00:12;3.30;;;3.00;;
11016;SDS011;54687;50.800;6.772;2023-08-30T10:02:41;4.90;;;3.83;;
11016;SDS011;54687;50.800;6.772;2023-08-30T10:05:09;4.07;;;3.25;;
11016;SDS011;54687;50.800;6.772;2023-08-30T10:07:38;6.40;;;2.65;;
11016;SDS011;54687;50.800;6.772;2023-08-30T10:10:05;6.65;;;3.13;;
11016;SDS011;54687;50.800;6.772;2023-08-30T10:12:32;3.50;;;3.05;;
11016;SDS011;54687;50.800;6.772;2023-08-30T10:14:59;7.85;;;4.05;;
11016;SDS011;54687;50.800;6.772;2023-08-30T10:17:27;5.18;;;3.70;;
11016;SDS011;54687;50.800;6.772;2023-08-30T10:19:59;4.70;;;4.22;;
11016;SDS011;54687;50.800;6.772;2023-08-30T10:22:30;5.72;;;5.00;;
11016;SDS011;54687;50.800;6.772;2023-08-30T10:24:59;4.88;;;3.05;;
11016;SDS011;54687;50.800;6.772;2023-08-30T10:27:29;6.28;;;2.80;;
11016;SDS011;54687;50.800;6.772;2023-08-30T10:29:59;3.28;;;2.50;;
11016;SDS011;54687;50.800;6.772;2023-08-30T10:32:28;2.78;;;2.58;;
11016;SDS011;54687;50.800;6.772;2023-08-30T10:34:55;2.90;;;2.50;;
11016;SDS011;54687;50.800;6.772;2023-08-30T10:37:24;4.93;;;2.70;;
11016;SDS011;54687;50.800;6.772;2023-08-30T10:39:53;2.67;;;2.47;;
11016;SDS011;54687;50.800;6.772;2023-08-30T10:42:25;4.78;;;2.90;;
11016;SDS011;54687;50.800;6.772;2023-08-30T10:44:56;2.42;;;2.22;;
11016;SDS011;54687;50.800;6.772;2023-08-30T10:47:23;3.20;;;2.30;;
11016;SDS011;54687;50.800;6.772;2023-08-30T10:49:53;4.68;;;2.70;;
11016;SDS011;54687;50.800;6.772;2023-08-30T10:52:20;3.92;;;2.20;;
11016;SDS011;54687;50.800;6.772;2023-08-30T10:54:49;3.35;;;2.47;;
11016;SDS011;54687;50.800;6.772;2023-08-30T10:57:18;4.63;;;2.40;;
11016;SDS011;54687;50.800;6.772;2023-08-30T11:00:04;4.45;;;2.80;;
11016;SDS011;54687;50.800;6.772;2023-08-30T11:02:34;9.18;;;3.13;;
11016;SDS011;54687;50.800;6.772;2023-08-30T11:05:01;5.18;;;2.45;;
11016;SDS011;54687;50.800;6.772;2023-08-30T11:07:29;3.70;;;2.50;;
11016;SDS011;54687;50.800;6.772;2023-08-30T11:09:57;3.40;;;2.80;;
11016;SDS011;54687;50.800;6.772;2023-08-30T11:12:24;5.28;;;2.75;;
11016;SDS011;54687;50.800;6.772;2023-08-30T11:14:52;3.55;;;2.60;;
11016;SDS011;54687;50.800;6.772;2023-08-30T11:17:19;3.05;;;2.85;;
11016;SDS011;54687;50.800;6.772;2023-08-30T11:19:49;4.63;;;2.75;;
11016;SDS011;54687;50.800;6.772;2023-08-30T11:22:16;3.92;;;2.78;;
11016;SDS011;54687;50.800;6.772;2023-08-30T11:24:45;2.75;;;2.55;;
11016;SDS011;54687;50.800;6.772;2023-08-30T11:27:14;4.45;;;3.17;;
11016;SDS011;54687;50.800;6.772;2023-08-30T11:29:43;3.88;;;2.85;;
11016;SDS011;54687;50.800;6.772;2023-08-30T11:32:09;4.38;;;3.00;;
11016;SDS011;54687;50.800;6.772;2023-08-30T11:34:36;4.95;;;2.95;;
11016;SDS011;54687;50.800;6.772;2023-08-30T11:37:03;3.90;;;3.05;;
11016;SDS011;54687;50.800;6.772;2023-08-30T11:39:30;5.20;;;2.85;;
11016;SDS011;54687;50.800;6.772;2023-08-30T11:41:56;3.30;;;3.00;;
11016;SDS011;54687;50.800;6.772;2023-08-30T11:44:24;3.95;;;2.90;;
11016;SDS011;54687;50.800;6.772;2023-08-30T11:46:57;3.17;;;2.72;;
11016;SDS011;54687;50.800;6.772;2023-08-30T11:49:24;5.47;;;3.03;;
11016;SDS011;54687;50.800;6.772;2023-08-30T11:51:50;3.38;;;3.00;;
11016;SDS011;54687;50.800;6.772;2023-08-30T11:54:18;3.13;;;2.90;;
11016;SDS011;54687;50.800;6.772;2023-08-30T11:56:45;3.60;;;3.25;;
11016;SDS011;54687;50.800;6.772;2023-08-30T11:59:17;3.72;;;3.15;;
11016;SDS011;54687;50.800;6.772;2023-08-30T12:01:46;3.15;;;2.70;;
11016;SDS011;54687;50.800;6.772;2023-08-30T12:04:13;2.80;;;2.50;;
11016;SDS011;54687;50.800;6.772;2023-08-30T12:06:39;2.95;;;2.65;;
11016;SDS011;54687;50.800;6.772;2023-08-30T12:09:11;2.88;;;2.67;;
11016;SDS011;54687;50.800;6.772;2023-08-30T12:11:38;3.60;;;2.72;;
11016;SDS011;54687;50.800;6.772;2023-08-30T12:14:04;2.92;;;2.72;;
11016;SDS011;54687;50.800;6.772;2023-08-30T12:16:31;2.45;;;2.25;;
11016;SDS011;54687;50.800;6.772;2023-08-30T12:19:08;3.80;;;2.60;;
11016;SDS011;54687;50.800;6.772;2023-08-30T12:21:39;2.80;;;2.60;;
11016;SDS011;54687;50.800;6.772;2023-08-30T12:24:08;2.75;;;2.50;;
11016;SDS011;54687;50.800;6.772;2023-08-30T12:26:34;3.95;;;3.03;;
11016;SDS011;54687;50.800;6.772;2023-08-30T12:29:03;2.70;;;2.50;;
11016;SDS011;54687;50.800;6.772;2023-08-30T12:31:31;3.13;;;2.85;;
11016;SDS011;54687;50.800;6.772;2023-08-30T12:33:57;2.97;;;2.50;;
11016;SDS011;54687;50.800;6.772;2023-08-30T12:36:25;4.90;;;2.70;;
11016;SDS011;54687;50.800;6.772;2023-08-30T12:38:52;3.53;;;2.38;;
11016;SDS011;54687;50.800;6.772;2023-08-30T12:41:19;4.18;;;2.75;;
11016;SDS011;54687;50.800;6.772;2023-08-30T12:43:48;2.60;;;2.40;;
11016;SDS011;54687;50.800;6.772;2023-08-30T12:46:15;2.83;;;2.63;;
11016;SDS011;54687;50.800;6.772;2023-08-30T12:48:42;2.60;;;2.40;;
11016;SDS011;54687;50.800;6.772;2023-08-30T12:51:08;3.35;;;2.85;;
11016;SDS011;54687;50.800;6.772;2023-08-30T12:53:36;4.43;;;4.00;;
11016;SDS011;54687;50.800;6.772;2023-08-30T12:56:03;4.45;;;2.58;;
11016;SDS011;54687;50.800;6.772;2023-08-30T12:58:30;3.10;;;2.60;;
11016;SDS011;54687;50.800;6.772;2023-08-30T13:00:56;2.97;;;2.67;;
11016;SDS011;54687;50.800;6.772;2023-08-30T13:03:23;3.53;;;2.50;;
11016;SDS011;54687;50.800;6.772;2023-08-30T13:05:50;3.03;;;2.67;;
11016;SDS011;54687;50.800;6.772;2023-08-30T13:08:16;3.28;;;2.75;;
11016;SDS011;54687;50.800;6.772;2023-08-30T13:10:45;4.35;;;2.42;;
11016;SDS011;54687;50.800;6.772;2023-08-30T13:13:11;2.53;;;2.25;;
11016;SDS011;54687;50.800;6.772;2023-08-30T13:15:38;4.72;;;2.72;;
11016;SDS011;54687;50.800;6.772;2023-08-30T13:18:05;2.85;;;2.60;;
11016;SDS011;54687;50.800;6.772;2023-08-30T13:20:31;2.78;;;2.20;;
11016;SDS011;54687;50.800;6.772;2023-08-30T13:22:59;3.92;;;2.40;;
11016;SDS011;54687;50.800;6.772;2023-08-30T13:25:25;2.20;;;1.92;;
11016;SDS011;54687;50.800;6.772;2023-08-30T13:27:54;2.85;;;2.47;;
11016;SDS011;54687;50.800;6.772;2023-08-30T13:30:20;3.67;;;2.10;;
11016;SDS011;54687;50.800;6.772;2023-08-30T13:32:47;2.25;;;2.03;;
11016;SDS011;54687;50.800;6.772;2023-08-30T13:35:14;4.25;;;2.85;;
11016;SDS011;54687;50.800;6.772;2023-08-30T13:37:40;2.83;;;2.40;;
11016;SDS011;54687;50.800;6.772;2023-08-30T13:40:07;2.50;;;2.05;;
11016;SDS011;54687;50.800;6.772;2023-08-30T13:42:35;2.10;;;1.90;;
11016;SDS011;54687;50.800;6.772;2023-08-30T13:45:03;2.25;;;2.00;;
11016;SDS011;54687;50.800;6.772;2023-08-30T13:47:31;3.03;;;2.30;;
11016;SDS011;54687;50.800;6.772;2023-08-30T13:49:57;2.10;;;1.90;;
11016;SDS011;54687;50.800;6.772;2023-08-30T13:52:25;2.30;;;2.05;;
11016;SDS011;54687;50.800;6.772;2023-08-30T13:54:54;2.17;;;1.98;;
11016;SDS011;54687;50.800;6.772;2023-08-30T13:57:20;2.28;;;2.00;;
11016;SDS011;54687;50.800;6.772;2023-08-30T13:59:47;2.83;;;1.95;;
11016;SDS011;54687;50.800;6.772;2023-08-30T14:02:15;3.25;;;2.15;;
11016;SDS011;54687;50.800;6.772;2023-08-30T14:04:42;3.10;;;2.10;;
11016;SDS011;54687;50.800;6.772;2023-08-30T14:07:08;3.85;;;2.33;;
11016;SDS011;54687;50.800;6.772;2023-08-30T14:09:36;3.15;;;2.85;;
11016;SDS011;54687;50.800;6.772;2023-08-30T14:12:03;4.10;;;3.03;;
11016;SDS011;54687;50.800;6.772;2023-08-30T14:14:30;2.38;;;2.17;;
11016;SDS011;54687;50.800;6.772;2023-08-30T14:16:57;4.38;;;2.35;;
11016;SDS011;54687;50.800;6.772;2023-08-30T14:19:25;4.38;;;2.90;;
11016;SDS011;54687;50.800;6.772;2023-08-30T14:21:52;2.47;;;2.28;;
11016;SDS011;54687;50.800;6.772;2023-08-30T14:24:21;3.67;;;2.47;;
11016;SDS011;54687;50.800;6.772;2023-08-30T14:26:47;2.55;;;2.35;;
11016;SDS011;54687;50.800;6.772;2023-08-30T14:29:14;2.95;;;2.72;;
11016;SDS011;54687;50.800;6.772;2023-08-30T14:31:41;3.17;;;2.92;;
11016;SDS011;54687;50.800;6.772;2023-08-30T14:34:07;2.97;;;2.72;;
11016;SDS011;54687;50.800;6.772;2023-08-30T14:36:35;4.93;;;2.92;;
11016;SDS011;54687;50.800;6.772;2023-08-30T14:39:02;3.72;;;2.92;;
11016;SDS011;54687;50.800;6.772;2023-08-30T14:41:29;3.40;;;3.10;;
11016;SDS011;54687;50.800;6.772;2023-08-30T14:43:57;2.95;;;2.75;;
11016;SDS011;54687;50.800;6.772;2023-08-30T14:46:24;3.78;;;3.10;;
11016;SDS011;54687;50.800;6.772;2023-08-30T14:48:51;2.83;;;2.63;;